createdAt,value
2023-05-05T00:03:56.478Z,7.90
2023-05-05T00:09:00.410Z,7.65
2023-05-05T00:14:04.700Z,8.09
2023-05-05T00:19:09.022Z,8.19
2023-05-05T00:24:13.186Z,8.36
2023-05-05T00:29:17.365Z,8.49
2023-05-05T00:34:21.310Z,8.61
2023-05-05T00:39:25.445Z,8.79
2023-05-05T00:44:42.588Z,8.92
2023-05-05T00:49:46.996Z,9.04
2023-05-05T00:54:51.104Z,9.32
2023-05-05T00:59:57.162Z,9.91
2023-05-05T01:05:01.306Z,11.00
2023-05-05T01:10:27.213Z,11.69
2023-05-05T01:15:43.747Z,12.06
2023-05-05T01:21:00.574Z,12.19
2023-05-05T01:26:54.596Z,12.20
2023-05-05T01:32:09.484Z,11.95
2023-05-05T01:37:23.143Z,11.81
2023-05-05T01:42:29.310Z,11.70
2023-05-05T01:47:33.477Z,11.46
2023-05-05T01:52:39.496Z,11.52
2023-05-05T01:57:46.702Z,11.65
2023-05-05T02:02:51.937Z,11.80
2023-05-05T02:08:00.045Z,11.85
2023-05-05T02:13:05.321Z,11.94
2023-05-05T02:18:10.746Z,12.05
2023-05-05T02:23:14.795Z,12.49
2023-05-05T02:28:24.117Z,13.10
2023-05-05T02:33:32.651Z,13.01
2023-05-05T02:38:40.335Z,12.69
2023-05-05T02:43:45.431Z,12.45
2023-05-05T02:48:49.769Z,12.21
2023-05-05T02:53:53.802Z,12.15
2023-05-05T02:59:16.334Z,12.19
2023-05-05T03:04:32.516Z,12.31
2023-05-05T03:10:12.280Z,12.49
2023-05-05T03:15:26.108Z,12.63
2023-05-05T03:20:31.982Z,12.56
2023-05-05T03:25:46.646Z,12.72
2023-05-05T03:30:59.466Z,13.40
2023-05-05T03:36:04.112Z,13.77
2023-05-05T03:41:08.460Z,13.95
2023-05-05T03:46:12.741Z,13.97
2023-05-05T03:51:17.166Z,13.98
2023-05-05T03:56:21.671Z,14.05
2023-05-05T04:01:25.760Z,14.15
2023-05-05T04:07:06.861Z,14.18
2023-05-05T04:12:12.432Z,14.27
2023-05-05T04:17:17.445Z,14.41
2023-05-05T04:22:21.408Z,14.55
2023-05-05T04:27:27.013Z,14.60
2023-05-05T04:32:30.925Z,14.58
2023-05-05T04:37:35.482Z,14.92
2023-05-05T04:42:40.060Z,15.06
2023-05-05T04:47:44.631Z,15.94
2023-05-05T04:52:49.146Z,16.15
2023-05-05T04:57:54.759Z,15.93
2023-05-05T05:03:00.478Z,16.28
2023-05-05T05:08:05.740Z,16.48
2023-05-05T05:13:12.426Z,16.60
2023-05-05T05:18:17.634Z,16.81
2023-05-05T05:23:22.277Z,17.01
2023-05-05T05:28:26.594Z,17.24
2023-05-05T05:33:34.715Z,17.45
2023-05-05T05:38:38.878Z,17.64
2023-05-05T05:43:44.000Z,17.64
2023-05-05T05:48:48.436Z,17.92
2023-05-05T05:53:52.454Z,17.94
2023-05-05T05:58:56.404Z,18.04
2023-05-05T06:04:00.577Z,18.17
2023-05-05T06:09:04.934Z,17.99
2023-05-05T06:14:10.477Z,18.35
2023-05-05T06:19:14.821Z,18.56
2023-05-05T06:24:19.909Z,18.83
2023-05-05T06:29:23.986Z,18.91
2023-05-05T06:34:28.132Z,19.21
2023-05-05T06:39:32.121Z,19.24
2023-05-05T06:44:37.328Z,19.23
2023-05-05T06:49:41.303Z,19.42
2023-05-05T06:54:45.299Z,19.58
2023-05-05T06:59:49.398Z,19.71
2023-05-05T07:04:55.832Z,19.93
2023-05-05T07:10:00.183Z,20.27
2023-05-05T07:15:15.433Z,20.59
2023-05-05T07:20:27.937Z,20.85
2023-05-05T07:25:31.820Z,21.01
2023-05-05T07:30:35.913Z,21.23
2023-05-05T07:35:40.044Z,21.44
2023-05-05T07:40:43.978Z,21.50
2023-05-05T07:45:48.083Z,21.54
2023-05-05T07:50:53.342Z,21.66
2023-05-05T07:55:57.457Z,21.73
2023-05-05T08:01:01.999Z,21.85
2023-05-05T08:06:13.102Z,22.00
2023-05-05T08:11:17.899Z,22.03
2023-05-05T08:16:22.118Z,22.11
2023-05-05T08:21:26.172Z,22.23
2023-05-05T08:26:30.241Z,22.54
2023-05-05T08:31:35.842Z,22.53
2023-05-05T08:36:40.010Z,22.27
2023-05-05T08:41:44.100Z,22.25
2023-05-05T08:46:50.051Z,22.20
2023-05-05T08:51:55.677Z,22.17
2023-05-05T08:57:02.650Z,22.21
2023-05-05T09:02:09.370Z,22.16
2023-05-05T09:07:13.495Z,22.12
2023-05-05T09:12:19.360Z,22.08
2023-05-05T09:17:27.679Z,22.05
2023-05-05T09:22:39.810Z,22.07
2023-05-05T09:27:48.762Z,21.97
2023-05-05T09:32:55.316Z,21.91
2023-05-05T09:38:13.154Z,21.88
2023-05-05T09:43:19.365Z,21.87
2023-05-05T09:48:31.948Z,21.83
2023-05-05T09:53:41.642Z,21.79
2023-05-05T09:58:45.678Z,21.69
2023-05-05T10:03:53.280Z,21.56
2023-05-05T10:09:03.488Z,21.56
2023-05-05T10:14:08.625Z,21.54
2023-05-05T10:19:15.481Z,21.66
2023-05-05T10:24:51.206Z,21.68
2023-05-05T10:30:08.788Z,21.56
2023-05-05T10:35:28.067Z,21.47
2023-05-05T10:40:32.931Z,21.29
2023-05-05T10:45:38.721Z,21.53
2023-05-05T10:50:52.355Z,21.49
2023-05-05T10:56:14.640Z,21.50
2023-05-05T11:01:32.426Z,21.46
2023-05-05T11:06:36.643Z,21.44
2023-05-05T11:12:14.836Z,21.33
2023-05-05T11:17:48.525Z,21.17
2023-05-05T11:23:14.577Z,21.03
2023-05-05T11:28:26.732Z,20.95
2023-05-05T11:33:39.262Z,20.59
2023-05-05T11:39:09.815Z,20.69
2023-05-05T11:44:21.145Z,20.47
2023-05-05T11:49:33.785Z,20.33
2023-05-05T11:54:48.474Z,20.17
2023-05-05T12:00:04.801Z,20.16
2023-05-05T12:05:21.323Z,20.11
2023-05-05T12:10:25.534Z,20.01
2023-05-05T12:15:33.415Z,19.90
2023-05-05T12:20:38.212Z,19.79
2023-05-05T12:25:42.284Z,19.70
2023-05-05T12:30:59.701Z,19.59
2023-05-05T12:36:05.286Z,19.37
2023-05-05T12:41:09.231Z,19.34
2023-05-05T12:53:07.164Z,19.06
2023-05-05T12:58:11.350Z,18.90
2023-05-05T13:03:21.991Z,18.76
2023-05-05T13:08:43.944Z,18.65
2023-05-05T13:13:48.038Z,18.52
2023-05-05T13:18:52.698Z,18.40
2023-05-05T13:24:05.087Z,18.17
2023-05-05T13:29:18.134Z,17.98
2023-05-05T13:34:21.953Z,17.72
2023-05-05T13:39:26.098Z,17.37
2023-05-05T13:44:30.168Z,17.09
2023-05-05T13:49:35.317Z,16.97
2023-05-05T13:54:39.462Z,16.70
2023-05-05T13:59:43.452Z,16.32
2023-05-05T14:12:00.279Z,15.33
2023-05-05T14:17:04.558Z,15.56
2023-05-05T14:22:08.850Z,15.55
2023-05-05T14:27:13.401Z,15.62
2023-05-05T14:32:17.782Z,15.64
2023-05-05T14:37:21.987Z,15.56
2023-05-05T14:42:27.318Z,15.63
2023-05-05T14:47:31.412Z,15.62
2023-05-05T14:52:35.319Z,15.57
2023-05-05T14:57:39.553Z,15.46
2023-05-05T15:02:43.943Z,15.34
2023-05-05T15:07:48.131Z,15.25
2023-05-05T15:12:52.017Z,15.20
2023-05-05T15:17:55.928Z,15.14
2023-05-05T15:23:00.182Z,15.01
2023-05-05T15:28:03.958Z,14.85
2023-05-05T15:33:08.161Z,14.81
2023-05-05T15:38:13.994Z,14.70
2023-05-05T15:43:18.183Z,14.65
2023-05-05T15:48:22.081Z,14.66
2023-05-05T15:53:27.640Z,14.62
2023-05-05T15:58:31.599Z,14.59
2023-05-05T16:03:35.512Z,14.58
2023-05-05T16:08:40.559Z,14.50
2023-05-05T16:13:44.429Z,14.46
2023-05-05T16:18:48.775Z,14.36
2023-05-05T16:23:52.636Z,14.21
2023-05-05T16:28:56.733Z,13.94
2023-05-05T16:34:01.920Z,13.75
2023-05-05T16:39:05.811Z,13.67
2023-05-05T16:44:09.840Z,13.50
2023-05-05T16:49:13.886Z,12.82
2023-05-05T16:54:17.872Z,12.83
2023-05-05T16:59:22.110Z,12.71
2023-05-05T17:04:26.675Z,12.22
2023-05-05T17:09:30.920Z,12.30
2023-05-05T17:14:34.724Z,12.23
2023-05-05T17:19:38.760Z,12.15
2023-05-05T17:24:43.964Z,12.20
2023-05-05T17:29:48.012Z,12.03
2023-05-05T17:34:51.842Z,11.96
2023-05-05T17:39:56.067Z,11.93
2023-05-05T17:45:01.266Z,11.54
2023-05-05T17:50:08.383Z,11.80
2023-05-05T17:55:12.671Z,11.84
2023-05-05T18:00:17.515Z,11.82
2023-05-05T18:05:21.870Z,11.63
2023-05-05T18:10:26.405Z,11.41
2023-05-05T18:15:33.822Z,11.31
2023-05-05T18:20:37.805Z,11.15
2023-05-05T18:25:42.386Z,11.16
2023-05-05T18:30:46.315Z,11.02
2023-05-05T18:35:50.384Z,11.04
2023-05-05T18:40:54.201Z,10.84
2023-05-05T18:45:58.201Z,10.31
2023-05-05T18:51:03.266Z,10.50
2023-05-05T18:56:07.937Z,10.42
2023-05-05T19:01:11.933Z,10.31
2023-05-05T19:06:16.582Z,9.93
2023-05-05T19:11:21.252Z,9.56
2023-05-05T19:16:25.824Z,9.53
2023-05-05T19:21:31.057Z,9.30
2023-05-05T19:26:34.928Z,9.14
2023-05-05T19:31:39.280Z,8.90
2023-05-05T19:36:43.263Z,8.62
2023-05-05T19:41:47.344Z,8.53
2023-05-05T19:46:51.393Z,8.48
2023-05-05T19:51:55.322Z,8.48
2023-05-05T19:56:59.496Z,8.40
2023-05-05T20:02:03.360Z,8.33
2023-05-05T20:07:07.438Z,8.17
2023-05-05T20:12:12.953Z,7.98
2023-05-05T20:17:20.794Z,7.95
2023-05-05T20:22:26.992Z,7.77
2023-05-05T20:27:31.131Z,7.31
2023-05-05T20:32:35.070Z,7.56
2023-05-05T20:37:39.139Z,7.45
2023-05-05T20:42:42.945Z,7.31
2023-05-05T20:47:46.954Z,7.10
2023-05-05T20:52:51.042Z,7.10
2023-05-05T20:57:55.257Z,7.06
2023-05-05T21:02:59.511Z,6.82
2023-05-05T21:08:03.478Z,6.44
2023-05-05T21:13:08.035Z,6.53
2023-05-05T21:18:12.272Z,6.41
2023-05-05T21:23:16.169Z,6.29
2023-05-05T21:28:20.243Z,6.15
2023-05-05T21:33:24.189Z,6.02
2023-05-05T21:38:28.112Z,5.88
2023-05-05T21:43:32.096Z,5.73
2023-05-05T21:48:36.017Z,5.65
2023-05-05T21:53:41.079Z,5.58
2023-05-05T21:58:45.144Z,5.48
2023-05-05T22:03:49.547Z,5.26
2023-05-05T22:08:53.508Z,5.26
2023-05-05T22:13:57.702Z,5.20
2023-05-05T22:19:02.495Z,5.11
2023-05-05T22:24:07.732Z,4.85
2023-05-05T22:29:12.334Z,4.78
2023-05-05T22:34:19.374Z,4.41
2023-05-05T22:39:24.325Z,4.56
2023-05-05T22:44:28.614Z,4.56
2023-05-05T22:49:32.554Z,4.54
2023-05-05T22:54:36.726Z,4.48
2023-05-05T22:59:40.697Z,4.42
2023-05-05T23:04:45.337Z,4.38
2023-05-05T23:09:49.819Z,4.31
2023-05-05T23:14:53.912Z,4.41
2023-05-05T23:19:58.041Z,4.33
2023-05-05T23:25:02.098Z,4.37
2023-05-05T23:30:09.577Z,4.45
2023-05-05T23:35:13.460Z,4.54
2023-05-05T23:40:17.693Z,4.64
2023-05-05T23:45:21.676Z,4.87
2023-05-05T23:50:26.408Z,5.10
2023-05-05T23:55:30.844Z,5.36
